Stations météo

réclame
Mon MeteoGroup
Aonach Mor, Grande-Bretagne (3041): Température de l'air & dewpoint: 17.07.2019 00:00:00 - 23.07.2019 00:00:00 (BST)Aonach Mor, Grande-Bretagne (3041): Vitesse du vent & gusts: 17.07.2019 00:00:00 - 23.07.2019 00:00:00 (BST)Aonach Mor, Grande-Bretagne (3041): Direction du vent: 17.07.2019 00:00:00 - 23.07.2019 00:00:00 (BST)
Date & Time tt [°C] td [°C] ff [km/h] ff [knt] fx [km/h] fx [knt] dd
23.07.2019 00:00:00 12,1 12,0 68 37 104 56 SSW
22.07.2019 23:00:00 12,2 12,2 59 32 106 57 SSW
22.07.2019 22:00:00 12,2 12,2 67 36 104 56 SSW
22.07.2019 21:00:00 12,1 12,1 67 36 102 55 SW
22.07.2019 20:00:00 12,2 12,2 65 35 115 62 SSW
22.07.2019 19:00:00 12,2 12,2 63 34 119 64 SSW
22.07.2019 18:00:00 12,3 12,3 74 40 133 72 SSW
22.07.2019 17:00:00 12,1 12,0 70 38 115 62 SSW
22.07.2019 16:00:00 11,9 11,9 70 38 106 57 SW
22.07.2019 15:00:00 12,0 12,0 63 34 106 57 SW
22.07.2019 14:00:00 12,2 12,1 59 32 106 57 SW
22.07.2019 13:00:00 12,1 12,1 65 35 111 60 SW
22.07.2019 12:00:00 12,2 12,2 68 37 120 65 SSW
22.07.2019 11:00:00 12,2 12,2 67 36 131 71 SSW
22.07.2019 10:00:00 11,6 11,6 59 32 102 55 SSW
22.07.2019 09:00:00 11,3 11,3 59 32 111 60 SSW
22.07.2019 08:00:00 11,3 11,3 74 40 119 64 SSW
22.07.2019 07:00:00 11,0 11,0 67 36 106 57 SSW
22.07.2019 06:00:00 10,7 10,7 55 30 89 48 SSW
22.07.2019 05:00:00 10,9 10,9 35 19 63 34 SSW
22.07.2019 04:00:00 10,8 10,7 37 20 57 31 SSW
22.07.2019 03:00:00 10,5 10,5 37 20 55 30 SSW
22.07.2019 02:00:00 10,1 10,1 35 19 46 25 S
22.07.2019 01:00:00 10,1 10,1 31 17 46 25 S
22.07.2019 00:00:00 10,1 10,1 28 15 70 38 S
21.07.2019 23:00:00 10,0 10,0 54 29 87 47 S
21.07.2019 22:00:00 10,3 10,2 57 31 83 45 SSW
21.07.2019 21:00:00 10,4 10,4 59 32 93 50 SSW
21.07.2019 20:00:00 10,2 10,0 55 30 100 54 SSW
21.07.2019 19:00:00 9,4 9,2 46 25 76 41 SSW
21.07.2019 18:00:00 8,8 8,6 54 29 85 46 S
21.07.2019 17:00:00 8,0 7,8 57 31 83 45 S
21.07.2019 16:00:00 7,7 7,5 41 22 67 36 S
21.07.2019 15:00:00 7,6 6,9 46 25 61 33 S
21.07.2019 14:00:00 7,3 7,1 54 29 72 39 SSW
21.07.2019 13:00:00 6,9 6,7 37 20 63 34 SSW
21.07.2019 12:00:00 6,9 6,7 39 21 72 39 SSW
21.07.2019 11:00:00 6,8 6,6 44 24 63 34 SSW
21.07.2019 10:00:00 6,8 6,7 37 20 63 34 SSW
21.07.2019 09:00:00 6,1 5,7 37 20 67 36 SSW
21.07.2019 08:00:00 6,1 5,9 48 26 67 36 SSW
21.07.2019 07:00:00 6,0 5,8 37 20 80 43 SSW
21.07.2019 06:00:00 6,1 5,9 41 22 68 37 SW
21.07.2019 05:00:00 6,4 6,2 37 20 72 39 SW
21.07.2019 04:00:00 6,4 6,4 35 19 72 39 SSW
21.07.2019 03:00:00 6,6 6,5 35 19 67 36 SW
21.07.2019 02:00:00 6,3 6,3 41 22 80 43 SW
21.07.2019 01:00:00 6,4 6,4 35 19 59 32 SSW
21.07.2019 00:00:00 6,3 6,3 39 21 61 33 SW
20.07.2019 23:00:00 6,1 6,1 34 18 52 28 SSW
20.07.2019 22:00:00 6,0 4,9 37 20 54 29 SW
20.07.2019 21:00:00 5,8 5,8 34 18 - - SW
20.07.2019 20:00:00 5,9 4,5 35 19 - - WSW
20.07.2019 19:00:00 6,4 6,0 28 15 - - WSW
20.07.2019 18:00:00 6,6 6,0 26 14 - - WSW
20.07.2019 17:00:00 7,0 4,9 28 15 - - WSW
20.07.2019 16:00:00 6,5 5,6 24 13 - - WSW
20.07.2019 15:00:00 6,7 6,7 18 10 - - WSW
20.07.2019 14:00:00 6,9 6,5 22 12 - - WSW
20.07.2019 13:00:00 7,1 6,7 21 11 - - WSW
20.07.2019 12:00:00 7,3 7,2 15 8 - - WSW
20.07.2019 11:00:00 8,0 7,6 11 6 - - W
20.07.2019 10:00:00 8,0 7,2 8 4 - - W
20.07.2019 09:00:00 8,0 7,5 9 5 - - WNW
20.07.2019 08:00:00 7,8 7,6 9 5 - - NW
20.07.2019 07:00:00 7,8 7,8 11 6 - - NNW
20.07.2019 06:00:00 7,9 7,9 15 8 - - N
20.07.2019 05:00:00 7,6 7,6 11 6 - - NNE
20.07.2019 04:00:00 8,0 7,0 16 9 - - ENE
20.07.2019 03:00:00 8,3 6,8 15 8 - - ENE
20.07.2019 02:00:00 7,5 6,6 15 8 - - E
20.07.2019 01:00:00 7,9 7,7 16 9 - - SE
20.07.2019 00:00:00 8,0 8,0 21 11 - - SE
19.07.2019 23:00:00 8,0 8,0 24 13 - - SE
19.07.2019 22:00:00 8,3 8,3 15 8 - - SSE
19.07.2019 21:00:00 8,1 8,0 16 9 - - SE
19.07.2019 20:00:00 8,7 8,5 5 3 - - S
19.07.2019 19:00:00 9,2 7,5 4 2 - - ESE
19.07.2019 18:00:00 10,2 6,2 15 8 - - SSW
19.07.2019 17:00:00 10,7 3,4 15 8 - - SSW
19.07.2019 16:00:00 9,5 5,2 21 11 - - SSW
19.07.2019 15:00:00 9,3 5,5 22 12 - - SSW
19.07.2019 14:00:00 9,0 6,3 21 11 - - S
19.07.2019 13:00:00 7,4 6,2 28 15 48 26 SSW
19.07.2019 12:00:00 6,3 5,9 35 19 54 29 SSW
19.07.2019 11:00:00 6,4 6,4 41 22 61 33 SSW
19.07.2019 10:00:00 6,5 6,5 35 19 59 32 SSW
19.07.2019 09:00:00 6,5 6,5 35 19 52 28 SSW
19.07.2019 08:00:00 6,3 6,3 34 18 59 32 SSW
19.07.2019 07:00:00 6,0 5,9 39 21 63 34 SSW
19.07.2019 06:00:00 5,7 5,5 37 20 67 36 SSW
19.07.2019 05:00:00 6,4 6,4 37 20 67 36 SSW
19.07.2019 04:00:00 6,2 6,2 37 20 74 40 SSW
19.07.2019 03:00:00 6,3 6,3 52 28 76 41 SSW
19.07.2019 02:00:00 6,2 6,0 44 24 76 41 SSW
19.07.2019 01:00:00 6,1 6,1 52 28 76 41 SSW
19.07.2019 00:00:00 5,9 5,9 35 19 72 39 SSW
18.07.2019 23:00:00 6,0 5,8 42 23 72 39 SSW
18.07.2019 22:00:00 5,6 5,4 44 24 81 44 SSW
18.07.2019 21:00:00 5,7 5,5 52 28 81 44 SW
18.07.2019 20:00:00 5,9 5,9 44 24 76 41 SW
18.07.2019 19:00:00 5,9 5,9 37 20 80 43 WSW
18.07.2019 18:00:00 6,4 6,4 39 21 72 39 SW
18.07.2019 17:00:00 6,0 6,0 37 20 83 45 SW
18.07.2019 16:00:00 6,3 6,3 35 19 76 41 SW
18.07.2019 15:00:00 6,3 6,3 39 21 72 39 SW
18.07.2019 14:00:00 6,1 6,1 46 25 85 46 SSW
18.07.2019 13:00:00 6,0 6,0 34 18 72 39 SW
18.07.2019 12:00:00 5,8 5,8 28 15 76 41 SSW
18.07.2019 11:00:00 5,8 5,8 44 24 68 37 SSW
18.07.2019 10:00:00 5,6 5,6 41 22 63 34 SW
18.07.2019 09:00:00 5,7 5,7 39 21 68 37 SW
18.07.2019 08:00:00 5,7 5,7 39 21 70 38 SW
18.07.2019 07:00:00 5,5 5,5 35 19 61 33 SSW
18.07.2019 06:00:00 5,4 5,4 35 19 59 32 SW
18.07.2019 05:00:00 5,8 5,8 28 15 48 26 SW
18.07.2019 04:00:00 5,1 4,9 29 16 61 33 WSW
18.07.2019 03:00:00 5,7 5,7 35 19 57 31 SSW
18.07.2019 02:00:00 5,9 5,9 26 14 52 28 SSW
18.07.2019 01:00:00 5,9 5,9 28 15 - - SW
18.07.2019 00:00:00 5,3 5,3 26 14 - - SW
17.07.2019 23:00:00 5,2 5,2 16 9 - - WSW
17.07.2019 22:00:00 6,6 6,6 18 10 - - SSW
17.07.2019 21:00:00 7,7 7,7 9 5 55 30 WSW
17.07.2019 20:00:00 8,5 8,5 34 18 55 30 SSW
17.07.2019 19:00:00 8,9 8,9 44 24 74 40 SSW
17.07.2019 18:00:00 8,6 8,6 55 30 76 41 SSW
17.07.2019 17:00:00 8,5 8,5 52 28 80 43 SSW
17.07.2019 16:00:00 8,5 8,3 52 28 78 42 SSW
17.07.2019 15:00:00 8,2 8,0 54 29 76 41 SSW
17.07.2019 14:00:00 7,7 7,6 48 26 65 35 S
17.07.2019 13:00:00 7,4 7,3 54 29 72 39 S
17.07.2019 12:00:00 7,3 7,3 50 27 74 40 S
17.07.2019 11:00:00 7,0 7,0 48 26 81 44 S
17.07.2019 10:00:00 6,9 6,9 57 31 85 46 S
17.07.2019 09:00:00 7,4 4,7 59 32 89 48 S
17.07.2019 08:00:00 7,7 6,1 55 30 81 44 SSW
17.07.2019 07:00:00 8,1 7,2 52 28 74 40 SSW
17.07.2019 06:00:00 8,2 7,4 46 25 76 41 SSW
17.07.2019 05:00:00 8,2 7,5 52 28 70 38 SSW
17.07.2019 04:00:00 8,2 8,2 44 24 67 36 SSW
17.07.2019 03:00:00 8,4 8,4 42 23 59 32 SSW
17.07.2019 02:00:00 8,3 8,3 28 15 46 25 SSW
17.07.2019 01:00:00 8,5 8,0 31 17 - - S
17.07.2019 00:00:00 8,4 8,0 26 14 - - S

tt = Température de l'air
td = dewpoint
ff = Vitesse du vent
fx = gusts
dd = Direction du vent

stations d'obs. à proximité